sensor_id;sensor_type;location;lat;lon;timestamp;temperature;humidity
15328;DHT22;7764;51.430;6.840;2023-12-28T00:01:46;9.80;99.90
15328;DHT22;7764;51.430;6.840;2023-12-28T00:04:14;9.90;99.90
15328;DHT22;7764;51.430;6.840;2023-12-28T00:06:41;9.90;99.90
15328;DHT22;7764;51.430;6.840;2023-12-28T00:09:08;9.90;99.90
15328;DHT22;7764;51.430;6.840;2023-12-28T00:11:35;9.90;99.90
15328;DHT22;7764;51.430;6.840;2023-12-28T00:14:02;9.90;99.90
15328;DHT22;7764;51.430;6.840;2023-12-28T00:16:30;9.90;99.90
15328;DHT22;7764;51.430;6.840;2023-12-28T00:18:59;9.90;99.90
15328;DHT22;7764;51.430;6.840;2023-12-28T00:21:28;10.00;99.90
15328;DHT22;7764;51.430;6.840;2023-12-28T00:23:55;10.00;99.90
15328;DHT22;7764;51.430;6.840;2023-12-28T00:26:22;10.00;99.90
15328;DHT22;7764;51.430;6.840;2023-12-28T00:28:49;10.00;99.90
15328;DHT22;7764;51.430;6.840;2023-12-28T00:31:16;10.00;99.90
15328;DHT22;7764;51.430;6.840;2023-12-28T00:33:42;10.00;99.90
15328;DHT22;7764;51.430;6.840;2023-12-28T00:36:09;10.00;99.90
15328;DHT22;7764;51.430;6.840;2023-12-28T00:38:37;10.00;99.90
15328;DHT22;7764;51.430;6.840;2023-12-28T00:41:04;10.10;99.90
15328;DHT22;7764;51.430;6.840;2023-12-28T00:43:31;10.10;99.90
15328;DHT22;7764;51.430;6.840;2023-12-28T00:45:58;10.10;99.90
15328;DHT22;7764;51.430;6.840;2023-12-28T00:48:24;10.20;99.90
15328;DHT22;7764;51.430;6.840;2023-12-28T00:50:51;10.20;99.90
15328;DHT22;7764;51.430;6.840;2023-12-28T00:53:18;10.20;99.90
15328;DHT22;7764;51.430;6.840;2023-12-28T00:55:47;10.20;99.90
15328;DHT22;7764;51.430;6.840;2023-12-28T00:58:13;10.20;99.90
15328;DHT22;7764;51.430;6.840;2023-12-28T01:00:40;10.20;99.90
15328;DHT22;7764;51.430;6.840;2023-12-28T01:03:07;10.20;99.90
15328;DHT22;7764;51.430;6.840;2023-12-28T01:05:34;10.30;99.90
15328;DHT22;7764;51.430;6.840;2023-12-28T01:08:00;10.30;99.90
15328;DHT22;7764;51.430;6.840;2023-12-28T01:10:28;10.30;99.90
15328;DHT22;7764;51.430;6.840;2023-12-28T01:12:56;10.30;99.90
15328;DHT22;7764;51.430;6.840;2023-12-28T01:15:23;10.30;99.90
15328;DHT22;7764;51.430;6.840;2023-12-28T01:17:49;10.30;99.90
15328;DHT22;7764;51.430;6.840;2023-12-28T01:20:16;10.40;99.90
15328;DHT22;7764;51.430;6.840;2023-12-28T01:22:43;10.40;99.90
15328;DHT22;7764;51.430;6.840;2023-12-28T01:25:10;10.40;99.90
15328;DHT22;7764;51.430;6.840;2023-12-28T01:27:36;10.40;99.90
15328;DHT22;7764;51.430;6.840;2023-12-28T01:30:06;10.40;99.90
15328;DHT22;7764;51.430;6.840;2023-12-28T01:32:33;10.40;99.90
15328;DHT22;7764;51.430;6.840;2023-12-28T01:35:00;10.40;99.90
15328;DHT22;7764;51.430;6.840;2023-12-28T01:37:27;10.40;99.90
15328;DHT22;7764;51.430;6.840;2023-12-28T01:39:56;10.40;99.90
15328;DHT22;7764;51.430;6.840;2023-12-28T01:42:23;10.40;99.90
15328;DHT22;7764;51.430;6.840;2023-12-28T01:44:50;10.40;99.90
15328;DHT22;7764;51.430;6.840;2023-12-28T01:47:18;10.40;99.90
15328;DHT22;7764;51.430;6.840;2023-12-28T01:49:45;10.40;99.90
15328;DHT22;7764;51.430;6.840;2023-12-28T01:52:12;10.40;99.90
15328;DHT22;7764;51.430;6.840;2023-12-28T01:54:39;10.50;99.90
15328;DHT22;7764;51.430;6.840;2023-12-28T01:57:06;10.40;99.90
15328;DHT22;7764;51.430;6.840;2023-12-28T01:59:33;10.50;99.90
15328;DHT22;7764;51.430;6.840;2023-12-28T02:02:00;10.50;99.90
15328;DHT22;7764;51.430;6.840;2023-12-28T02:04:29;10.50;99.90
15328;DHT22;7764;51.430;6.840;2023-12-28T02:06:57;10.50;99.90
15328;DHT22;7764;51.430;6.840;2023-12-28T02:09:24;10.50;99.90
15328;DHT22;7764;51.430;6.840;2023-12-28T02:11:51;10.50;99.90
15328;DHT22;7764;51.430;6.840;2023-12-28T02:14:18;10.50;99.90
15328;DHT22;7764;51.430;6.840;2023-12-28T02:16:56;10.50;99.90
15328;DHT22;7764;51.430;6.840;2023-12-28T02:19:39;10.50;99.90
15328;DHT22;7764;51.430;6.840;2023-12-28T02:22:07;10.50;99.90
15328;DHT22;7764;51.430;6.840;2023-12-28T02:25:04;10.60;99.90
15328;DHT22;7764;51.430;6.840;2023-12-28T02:27:31;10.50;99.90
15328;DHT22;7764;51.430;6.840;2023-12-28T02:29:58;10.60;99.90
15328;DHT22;7764;51.430;6.840;2023-12-28T02:32:33;10.50;99.90
15328;DHT22;7764;51.430;6.840;2023-12-28T02:35:09;10.50;99.90
15328;DHT22;7764;51.430;6.840;2023-12-28T02:37:39;10.50;99.90
15328;DHT22;7764;51.430;6.840;2023-12-28T02:40:09;10.50;99.90
15328;DHT22;7764;51.430;6.840;2023-12-28T02:42:36;10.50;99.90
15328;DHT22;7764;51.430;6.840;2023-12-28T02:45:03;10.60;99.90
15328;DHT22;7764;51.430;6.840;2023-12-28T02:47:30;10.60;99.90
15328;DHT22;7764;51.430;6.840;2023-12-28T02:49:57;10.60;99.90
15328;DHT22;7764;51.430;6.840;2023-12-28T02:52:24;10.50;99.90
15328;DHT22;7764;51.430;6.840;2023-12-28T02:54:51;10.50;99.90
15328;DHT22;7764;51.430;6.840;2023-12-28T02:57:19;10.50;99.90
15328;DHT22;7764;51.430;6.840;2023-12-28T02:59:46;10.50;99.90
15328;DHT22;7764;51.430;6.840;2023-12-28T03:02:13;10.50;99.90
15328;DHT22;7764;51.430;6.840;2023-12-28T03:04:40;10.50;99.90
15328;DHT22;7764;51.430;6.840;2023-12-28T03:07:08;10.50;99.90
15328;DHT22;7764;51.430;6.840;2023-12-28T03:09:34;10.50;99.90
15328;DHT22;7764;51.430;6.840;2023-12-28T03:12:04;10.50;99.90
15328;DHT22;7764;51.430;6.840;2023-12-28T03:14:32;10.50;99.90
15328;DHT22;7764;51.430;6.840;2023-12-28T03:16:59;10.60;99.90
15328;DHT22;7764;51.430;6.840;2023-12-28T03:19:26;10.50;99.90
15328;DHT22;7764;51.430;6.840;2023-12-28T03:21:52;10.60;99.90
15328;DHT22;7764;51.430;6.840;2023-12-28T03:24:19;10.60;99.90
15328;DHT22;7764;51.430;6.840;2023-12-28T03:26:46;10.60;99.90
15328;DHT22;7764;51.430;6.840;2023-12-28T03:29:13;10.60;99.90
15328;DHT22;7764;51.430;6.840;2023-12-28T03:31:41;10.60;99.90
15328;DHT22;7764;51.430;6.840;2023-12-28T03:34:08;10.60;99.90
15328;DHT22;7764;51.430;6.840;2023-12-28T03:36:35;10.60;99.90
15328;DHT22;7764;51.430;6.840;2023-12-28T03:39:01;10.60;99.90
15328;DHT22;7764;51.430;6.840;2023-12-28T03:41:30;10.60;99.90
15328;DHT22;7764;51.430;6.840;2023-12-28T03:43:57;10.60;99.90
15328;DHT22;7764;51.430;6.840;2023-12-28T03:46:23;10.60;99.90
15328;DHT22;7764;51.430;6.840;2023-12-28T03:48:52;10.70;99.90
15328;DHT22;7764;51.430;6.840;2023-12-28T03:51:19;10.60;99.90
15328;DHT22;7764;51.430;6.840;2023-12-28T03:53:46;10.60;99.90
15328;DHT22;7764;51.430;6.840;2023-12-28T03:56:20;10.70;99.90
15328;DHT22;7764;51.430;6.840;2023-12-28T03:58:47;10.70;99.90
15328;DHT22;7764;51.430;6.840;2023-12-28T04:01:15;10.70;99.90
15328;DHT22;7764;51.430;6.840;2023-12-28T04:03:42;10.70;99.90
15328;DHT22;7764;51.430;6.840;2023-12-28T04:06:10;10.70;99.90
15328;DHT22;7764;51.430;6.840;2023-12-28T04:08:38;10.70;99.90
15328;DHT22;7764;51.430;6.840;2023-12-28T04:11:05;10.70;99.90
15328;DHT22;7764;51.430;6.840;2023-12-28T04:13:31;10.70;99.90
15328;DHT22;7764;51.430;6.840;2023-12-28T04:15:58;10.70;99.90
15328;DHT22;7764;51.430;6.840;2023-12-28T04:18:25;10.60;99.90
15328;DHT22;7764;51.430;6.840;2023-12-28T04:20:52;10.60;99.90
15328;DHT22;7764;51.430;6.840;2023-12-28T04:23:20;10.60;99.90
15328;DHT22;7764;51.430;6.840;2023-12-28T04:25:47;10.60;99.90
15328;DHT22;7764;51.430;6.840;2023-12-28T04:28:14;10.70;99.90
15328;DHT22;7764;51.430;6.840;2023-12-28T04:30:41;10.70;99.90
15328;DHT22;7764;51.430;6.840;2023-12-28T04:33:08;10.70;99.90
15328;DHT22;7764;51.430;6.840;2023-12-28T04:35:35;10.70;99.90
15328;DHT22;7764;51.430;6.840;2023-12-28T04:38:02;10.70;99.90
15328;DHT22;7764;51.430;6.840;2023-12-28T04:40:31;10.70;99.90
15328;DHT22;7764;51.430;6.840;2023-12-28T04:42:59;10.70;99.90
15328;DHT22;7764;51.430;6.840;2023-12-28T04:45:25;10.80;99.90
15328;DHT22;7764;51.430;6.840;2023-12-28T04:47:53;10.80;99.90
15328;DHT22;7764;51.430;6.840;2023-12-28T04:50:19;10.70;99.90
15328;DHT22;7764;51.430;6.840;2023-12-28T04:52:46;10.70;99.90
15328;DHT22;7764;51.430;6.840;2023-12-28T04:55:13;10.70;99.90
15328;DHT22;7764;51.430;6.840;2023-12-28T04:57:42;10.70;99.90
15328;DHT22;7764;51.430;6.840;2023-12-28T05:00:09;10.80;99.90
15328;DHT22;7764;51.430;6.840;2023-12-28T05:02:36;10.80;99.90
15328;DHT22;7764;51.430;6.840;2023-12-28T05:05:04;10.80;99.90
15328;DHT22;7764;51.430;6.840;2023-12-28T05:07:31;10.80;99.90
15328;DHT22;7764;51.430;6.840;2023-12-28T05:09:58;10.80;99.90
15328;DHT22;7764;51.430;6.840;2023-12-28T05:12:25;10.80;99.90
15328;DHT22;7764;51.430;6.840;2023-12-28T05:14:53;10.80;99.90
15328;DHT22;7764;51.430;6.840;2023-12-28T05:17:20;10.80;99.90
15328;DHT22;7764;51.430;6.840;2023-12-28T05:19:47;10.80;99.90
15328;DHT22;7764;51.430;6.840;2023-12-28T05:22:13;10.80;99.90
15328;DHT22;7764;51.430;6.840;2023-12-28T05:24:40;10.80;99.90
15328;DHT22;7764;51.430;6.840;2023-12-28T05:27:07;10.90;99.90
15328;DHT22;7764;51.430;6.840;2023-12-28T05:29:34;10.90;99.90
15328;DHT22;7764;51.430;6.840;2023-12-28T05:32:02;10.90;99.90
15328;DHT22;7764;51.430;6.840;2023-12-28T05:34:29;10.90;99.90
15328;DHT22;7764;51.430;6.840;2023-12-28T05:36:56;10.90;99.90
15328;DHT22;7764;51.430;6.840;2023-12-28T05:39:22;10.90;99.90
15328;DHT22;7764;51.430;6.840;2023-12-28T05:41:49;10.90;99.90
15328;DHT22;7764;51.430;6.840;2023-12-28T05:44:16;10.90;99.90
15328;DHT22;7764;51.430;6.840;2023-12-28T05:46:43;10.90;99.90
15328;DHT22;7764;51.430;6.840;2023-12-28T05:49:11;11.00;99.90
15328;DHT22;7764;51.430;6.840;2023-12-28T05:51:38;10.90;99.90
15328;DHT22;7764;51.430;6.840;2023-12-28T05:54:06;10.90;99.90
15328;DHT22;7764;51.430;6.840;2023-12-28T05:56:33;11.00;99.90
15328;DHT22;7764;51.430;6.840;2023-12-28T05:59:00;11.00;99.90
15328;DHT22;7764;51.430;6.840;2023-12-28T06:01:27;11.00;99.90
15328;DHT22;7764;51.430;6.840;2023-12-28T06:03:54;11.00;99.90
15328;DHT22;7764;51.430;6.840;2023-12-28T06:06:22;11.00;99.90
15328;DHT22;7764;51.430;6.840;2023-12-28T06:08:49;11.00;99.90
15328;DHT22;7764;51.430;6.840;2023-12-28T06:11:17;11.00;99.90
15328;DHT22;7764;51.430;6.840;2023-12-28T06:13:43;11.00;99.90
15328;DHT22;7764;51.430;6.840;2023-12-28T06:16:10;11.00;99.90
15328;DHT22;7764;51.430;6.840;2023-12-28T06:18:37;11.00;99.90
15328;DHT22;7764;51.430;6.840;2023-12-28T06:21:04;11.00;99.90
15328;DHT22;7764;51.430;6.840;2023-12-28T06:23:33;11.00;99.90
15328;DHT22;7764;51.430;6.840;2023-12-28T06:26:04;11.10;99.90
15328;DHT22;7764;51.430;6.840;2023-12-28T06:28:32;11.10;99.90
15328;DHT22;7764;51.430;6.840;2023-12-28T06:30:59;11.00;99.90
15328;DHT22;7764;51.430;6.840;2023-12-28T06:33:26;11.00;99.90
15328;DHT22;7764;51.430;6.840;2023-12-28T06:35:54;10.90;99.90
15328;DHT22;7764;51.430;6.840;2023-12-28T06:38:23;10.90;99.90
15328;DHT22;7764;51.430;6.840;2023-12-28T06:40:51;10.90;99.90
15328;DHT22;7764;51.430;6.840;2023-12-28T06:43:18;10.90;99.90
15328;DHT22;7764;51.430;6.840;2023-12-28T06:45:45;11.00;99.90
15328;DHT22;7764;51.430;6.840;2023-12-28T06:48:12;11.00;99.90
15328;DHT22;7764;51.430;6.840;2023-12-28T06:50:39;10.90;99.90
15328;DHT22;7764;51.430;6.840;2023-12-28T06:53:06;10.90;99.90
15328;DHT22;7764;51.430;6.840;2023-12-28T06:55:33;10.90;99.90
15328;DHT22;7764;51.430;6.840;2023-12-28T06:58:01;11.00;99.90
15328;DHT22;7764;51.430;6.840;2023-12-28T07:00:28;11.00;99.90
15328;DHT22;7764;51.430;6.840;2023-12-28T07:02:56;11.00;99.90
15328;DHT22;7764;51.430;6.840;2023-12-28T07:05:23;10.90;99.90
15328;DHT22;7764;51.430;6.840;2023-12-28T07:07:50;11.00;99.90
15328;DHT22;7764;51.430;6.840;2023-12-28T07:10:16;11.00;99.90
15328;DHT22;7764;51.430;6.840;2023-12-28T07:12:43;11.00;99.90
15328;DHT22;7764;51.430;6.840;2023-12-28T07:15:12;11.00;99.90
15328;DHT22;7764;51.430;6.840;2023-12-28T07:17:40;11.00;99.90
15328;DHT22;7764;51.430;6.840;2023-12-28T07:20:08;11.00;99.90
15328;DHT22;7764;51.430;6.840;2023-12-28T07:22:36;11.00;99.90
15328;DHT22;7764;51.430;6.840;2023-12-28T07:25:04;11.00;99.90
15328;DHT22;7764;51.430;6.840;2023-12-28T07:27:32;11.00;99.90
15328;DHT22;7764;51.430;6.840;2023-12-28T07:29:59;11.00;99.90
15328;DHT22;7764;51.430;6.840;2023-12-28T07:32:28;11.00;99.90
15328;DHT22;7764;51.430;6.840;2023-12-28T07:34:56;11.00;99.90
15328;DHT22;7764;51.430;6.840;2023-12-28T07:37:24;10.90;99.90
15328;DHT22;7764;51.430;6.840;2023-12-28T07:39:51;11.00;99.90
15328;DHT22;7764;51.430;6.840;2023-12-28T07:42:18;11.00;99.90
15328;DHT22;7764;51.430;6.840;2023-12-28T07:44:45;11.00;99.90
15328;DHT22;7764;51.430;6.840;2023-12-28T07:47:12;11.00;99.90
15328;DHT22;7764;51.430;6.840;2023-12-28T07:49:41;11.00;99.90
15328;DHT22;7764;51.430;6.840;2023-12-28T07:52:08;11.00;99.90
15328;DHT22;7764;51.430;6.840;2023-12-28T07:54:35;11.10;99.90
15328;DHT22;7764;51.430;6.840;2023-12-28T07:57:02;11.10;99.90
15328;DHT22;7764;51.430;6.840;2023-12-28T07:59:29;11.00;99.90
15328;DHT22;7764;51.430;6.840;2023-12-28T08:01:56;11.10;99.90
15328;DHT22;7764;51.430;6.840;2023-12-28T08:04:23;11.00;99.90
15328;DHT22;7764;51.430;6.840;2023-12-28T08:06:51;11.10;99.90
15328;DHT22;7764;51.430;6.840;2023-12-28T08:09:18;11.10;99.90
15328;DHT22;7764;51.430;6.840;2023-12-28T08:11:45;11.20;99.90
15328;DHT22;7764;51.430;6.840;2023-12-28T08:14:12;11.20;99.90
15328;DHT22;7764;51.430;6.840;2023-12-28T08:16:39;11.10;99.90
15328;DHT22;7764;51.430;6.840;2023-12-28T08:19:06;11.10;99.90
15328;DHT22;7764;51.430;6.840;2023-12-28T08:21:33;11.10;99.90
15328;DHT22;7764;51.430;6.840;2023-12-28T08:24:02;11.10;99.90
15328;DHT22;7764;51.430;6.840;2023-12-28T08:26:29;11.10;99.90
15328;DHT22;7764;51.430;6.840;2023-12-28T08:28:58;11.10;99.90
15328;DHT22;7764;51.430;6.840;2023-12-28T08:31:25;11.10;99.90
15328;DHT22;7764;51.430;6.840;2023-12-28T08:33:52;11.10;99.90
15328;DHT22;7764;51.430;6.840;2023-12-28T08:36:19;11.20;99.90
15328;DHT22;7764;51.430;6.840;2023-12-28T08:38:46;11.20;99.90
15328;DHT22;7764;51.430;6.840;2023-12-28T08:41:20;11.20;99.90
15328;DHT22;7764;51.430;6.840;2023-12-28T08:43:49;11.20;99.90
15328;DHT22;7764;51.430;6.840;2023-12-28T08:46:17;11.20;99.90
15328;DHT22;7764;51.430;6.840;2023-12-28T08:48:44;11.30;99.90
15328;DHT22;7764;51.430;6.840;2023-12-28T08:51:11;11.30;99.90
15328;DHT22;7764;51.430;6.840;2023-12-28T08:53:40;11.20;99.90
15328;DHT22;7764;51.430;6.840;2023-12-28T08:56:13;11.20;99.90
15328;DHT22;7764;51.430;6.840;2023-12-28T08:58:42;11.30;99.90
15328;DHT22;7764;51.430;6.840;2023-12-28T09:01:09;11.30;99.90
15328;DHT22;7764;51.430;6.840;2023-12-28T09:03:41;11.20;99.90
15328;DHT22;7764;51.430;6.840;2023-12-28T09:06:08;11.30;99.90
15328;DHT22;7764;51.430;6.840;2023-12-28T09:08:35;11.30;99.90
15328;DHT22;7764;51.430;6.840;2023-12-28T09:11:02;11.30;99.90
15328;DHT22;7764;51.430;6.840;2023-12-28T09:13:29;11.40;99.90
15328;DHT22;7764;51.430;6.840;2023-12-28T09:15:58;11.40;99.90
15328;DHT22;7764;51.430;6.840;2023-12-28T09:18:25;11.40;99.90
15328;DHT22;7764;51.430;6.840;2023-12-28T09:20:52;11.40;99.90
15328;DHT22;7764;51.430;6.840;2023-12-28T09:23:18;11.30;99.90
15328;DHT22;7764;51.430;6.840;2023-12-28T09:25:45;11.40;99.90
15328;DHT22;7764;51.430;6.840;2023-12-28T09:28:12;11.40;99.90
15328;DHT22;7764;51.430;6.840;2023-12-28T09:30:40;11.40;99.90
15328;DHT22;7764;51.430;6.840;2023-12-28T09:33:08;11.40;99.90
15328;DHT22;7764;51.430;6.840;2023-12-28T09:35:35;11.50;99.90
15328;DHT22;7764;51.430;6.840;2023-12-28T09:38:02;11.50;99.90
15328;DHT22;7764;51.430;6.840;2023-12-28T09:40:29;11.50;99.90
15328;DHT22;7764;51.430;6.840;2023-12-28T09:43:03;11.50;99.90
15328;DHT22;7764;51.430;6.840;2023-12-28T09:45:33;11.50;99.90
15328;DHT22;7764;51.430;6.840;2023-12-28T09:48:00;11.50;99.90
15328;DHT22;7764;51.430;6.840;2023-12-28T09:50:30;11.50;99.90
15328;DHT22;7764;51.430;6.840;2023-12-28T09:52:57;11.50;99.90
15328;DHT22;7764;51.430;6.840;2023-12-28T09:55:23;11.50;99.90
15328;DHT22;7764;51.430;6.840;2023-12-28T09:57:51;11.60;99.90
15328;DHT22;7764;51.430;6.840;2023-12-28T10:00:18;11.60;99.90
15328;DHT22;7764;51.430;6.840;2023-12-28T10:02:46;11.60;99.90
15328;DHT22;7764;51.430;6.840;2023-12-28T10:05:14;11.60;99.90
15328;DHT22;7764;51.430;6.840;2023-12-28T10:07:44;11.60;99.90
15328;DHT22;7764;51.430;6.840;2023-12-28T10:10:11;11.70;99.90
15328;DHT22;7764;51.430;6.840;2023-12-28T10:12:38;11.80;99.90
15328;DHT22;7764;51.430;6.840;2023-12-28T10:15:06;11.80;99.90
15328;DHT22;7764;51.430;6.840;2023-12-28T10:17:33;11.80;99.90
15328;DHT22;7764;51.430;6.840;2023-12-28T10:20:01;11.80;99.90
15328;DHT22;7764;51.430;6.840;2023-12-28T10:22:30;11.80;99.90
15328;DHT22;7764;51.430;6.840;2023-12-28T10:25:01;11.80;99.90
15328;DHT22;7764;51.430;6.840;2023-12-28T10:27:29;11.80;99.90
15328;DHT22;7764;51.430;6.840;2023-12-28T10:29:56;11.80;99.90
15328;DHT22;7764;51.430;6.840;2023-12-28T10:32:23;11.80;99.90
15328;DHT22;7764;51.430;6.840;2023-12-28T10:34:51;11.80;99.90
15328;DHT22;7764;51.430;6.840;2023-12-28T10:37:20;11.80;99.90
15328;DHT22;7764;51.430;6.840;2023-12-28T10:39:48;11.90;99.90
15328;DHT22;7764;51.430;6.840;2023-12-28T10:42:25;11.80;99.90
15328;DHT22;7764;51.430;6.840;2023-12-28T10:44:55;11.90;99.90
15328;DHT22;7764;51.430;6.840;2023-12-28T10:47:26;11.90;99.90
15328;DHT22;7764;51.430;6.840;2023-12-28T10:49:55;11.90;99.90
15328;DHT22;7764;51.430;6.840;2023-12-28T10:52:27;11.90;99.90
15328;DHT22;7764;51.430;6.840;2023-12-28T10:55:00;11.90;99.90
15328;DHT22;7764;51.430;6.840;2023-12-28T10:57:39;12.00;99.90
15328;DHT22;7764;51.430;6.840;2023-12-28T11:00:10;12.00;99.90
15328;DHT22;7764;51.430;6.840;2023-12-28T11:02:38;12.00;99.90
15328;DHT22;7764;51.430;6.840;2023-12-28T11:05:07;12.00;99.90
15328;DHT22;7764;51.430;6.840;2023-12-28T11:07:36;12.10;99.90
15328;DHT22;7764;51.430;6.840;2023-12-28T11:10:05;12.10;99.90
15328;DHT22;7764;51.430;6.840;2023-12-28T11:12:34;12.10;99.90
15328;DHT22;7764;51.430;6.840;2023-12-28T11:15:02;12.20;99.90
15328;DHT22;7764;51.430;6.840;2023-12-28T11:17:31;12.20;99.90
15328;DHT22;7764;51.430;6.840;2023-12-28T11:19:58;12.20;99.90
15328;DHT22;7764;51.430;6.840;2023-12-28T11:22:26;12.30;99.90
15328;DHT22;7764;51.430;6.840;2023-12-28T11:24:54;12.20;99.90
15328;DHT22;7764;51.430;6.840;2023-12-28T11:27:21;12.30;99.90
15328;DHT22;7764;51.430;6.840;2023-12-28T11:29:49;12.30;99.90
15328;DHT22;7764;51.430;6.840;2023-12-28T11:32:19;12.30;99.90
15328;DHT22;7764;51.430;6.840;2023-12-28T11:34:56;12.40;99.90
15328;DHT22;7764;51.430;6.840;2023-12-28T11:37:26;12.40;99.90
15328;DHT22;7764;51.430;6.840;2023-12-28T11:39:53;12.40;99.90
15328;DHT22;7764;51.430;6.840;2023-12-28T11:42:22;12.40;99.90
15328;DHT22;7764;51.430;6.840;2023-12-28T11:44:55;12.40;99.90
15328;DHT22;7764;51.430;6.840;2023-12-28T11:47:23;12.40;99.90
15328;DHT22;7764;51.430;6.840;2023-12-28T11:49:50;12.40;99.90
15328;DHT22;7764;51.430;6.840;2023-12-28T11:52:25;12.50;99.90
15328;DHT22;7764;51.430;6.840;2023-12-28T11:54:53;12.50;99.90
15328;DHT22;7764;51.430;6.840;2023-12-28T11:57:20;12.50;99.90
15328;DHT22;7764;51.430;6.840;2023-12-28T11:59:52;12.50;99.90
15328;DHT22;7764;51.430;6.840;2023-12-28T12:02:20;12.50;99.90
15328;DHT22;7764;51.430;6.840;2023-12-28T12:04:48;12.50;99.90
15328;DHT22;7764;51.430;6.840;2023-12-28T12:07:15;12.50;99.90
15328;DHT22;7764;51.430;6.840;2023-12-28T12:09:42;12.50;99.90
15328;DHT22;7764;51.430;6.840;2023-12-28T12:12:09;12.60;99.90
15328;DHT22;7764;51.430;6.840;2023-12-28T12:14:36;12.60;99.90
15328;DHT22;7764;51.430;6.840;2023-12-28T12:17:04;12.60;99.90
15328;DHT22;7764;51.430;6.840;2023-12-28T12:19:33;12.60;99.90
15328;DHT22;7764;51.430;6.840;2023-12-28T12:22:00;12.60;99.90
15328;DHT22;7764;51.430;6.840;2023-12-28T12:24:26;12.60;99.90
15328;DHT22;7764;51.430;6.840;2023-12-28T12:26:53;12.60;99.90
15328;DHT22;7764;51.430;6.840;2023-12-28T12:29:20;12.60;99.90
15328;DHT22;7764;51.430;6.840;2023-12-28T12:31:48;12.60;99.90
15328;DHT22;7764;51.430;6.840;2023-12-28T12:34:16;12.60;99.90
15328;DHT22;7764;51.430;6.840;2023-12-28T12:36:44;12.60;99.90
15328;DHT22;7764;51.430;6.840;2023-12-28T12:39:11;12.70;99.90
15328;DHT22;7764;51.430;6.840;2023-12-28T12:41:38;12.70;99.90
15328;DHT22;7764;51.430;6.840;2023-12-28T12:44:05;12.60;99.90
15328;DHT22;7764;51.430;6.840;2023-12-28T12:46:32;12.70;99.90
15328;DHT22;7764;51.430;6.840;2023-12-28T12:49:00;12.70;99.90
15328;DHT22;7764;51.430;6.840;2023-12-28T12:51:28;12.70;99.90
15328;DHT22;7764;51.430;6.840;2023-12-28T12:53:58;12.70;99.90
15328;DHT22;7764;51.430;6.840;2023-12-28T12:56:26;12.70;99.90
15328;DHT22;7764;51.430;6.840;2023-12-28T12:58:53;12.70;99.90
15328;DHT22;7764;51.430;6.840;2023-12-28T13:01:20;12.70;99.90
15328;DHT22;7764;51.430;6.840;2023-12-28T13:03:47;12.60;99.90
15328;DHT22;7764;51.430;6.840;2023-12-28T13:06:14;12.60;99.90
15328;DHT22;7764;51.430;6.840;2023-12-28T13:08:41;12.50;99.90
15328;DHT22;7764;51.430;6.840;2023-12-28T13:11:09;12.50;99.90
15328;DHT22;7764;51.430;6.840;2023-12-28T13:13:36;12.50;99.90
15328;DHT22;7764;51.430;6.840;2023-12-28T13:16:03;12.50;99.90
15328;DHT22;7764;51.430;6.840;2023-12-28T13:18:30;12.50;99.90
15328;DHT22;7764;51.430;6.840;2023-12-28T13:20:58;12.60;99.90
15328;DHT22;7764;51.430;6.840;2023-12-28T13:23:24;12.60;99.90
15328;DHT22;7764;51.430;6.840;2023-12-28T13:25:51;12.60;99.90
15328;DHT22;7764;51.430;6.840;2023-12-28T13:28:19;12.60;99.90
15328;DHT22;7764;51.430;6.840;2023-12-28T13:30:46;12.60;99.90
15328;DHT22;7764;51.430;6.840;2023-12-28T13:33:14;12.60;99.90
15328;DHT22;7764;51.430;6.840;2023-12-28T13:35:41;12.60;99.90
15328;DHT22;7764;51.430;6.840;2023-12-28T13:38:08;12.60;99.90
15328;DHT22;7764;51.430;6.840;2023-12-28T13:40:35;12.60;99.90
15328;DHT22;7764;51.430;6.840;2023-12-28T13:43:02;12.60;99.90
15328;DHT22;7764;51.430;6.840;2023-12-28T13:45:30;12.70;99.90
15328;DHT22;7764;51.430;6.840;2023-12-28T13:47:57;12.70;99.90
15328;DHT22;7764;51.430;6.840;2023-12-28T13:50:24;12.60;99.90
15328;DHT22;7764;51.430;6.840;2023-12-28T13:52:51;12.70;99.90
15328;DHT22;7764;51.430;6.840;2023-12-28T13:55:18;12.60;99.90
15328;DHT22;7764;51.430;6.840;2023-12-28T13:57:45;12.50;99.90
15328;DHT22;7764;51.430;6.840;2023-12-28T14:00:13;12.50;99.90
15328;DHT22;7764;51.430;6.840;2023-12-28T14:02:41;12.50;99.90
15328;DHT22;7764;51.430;6.840;2023-12-28T14:05:08;12.50;99.90
15328;DHT22;7764;51.430;6.840;2023-12-28T14:07:35;12.50;99.90
15328;DHT22;7764;51.430;6.840;2023-12-28T14:10:03;12.50;99.90
15328;DHT22;7764;51.430;6.840;2023-12-28T14:12:30;12.50;99.90
15328;DHT22;7764;51.430;6.840;2023-12-28T14:14:57;12.50;99.90
15328;DHT22;7764;51.430;6.840;2023-12-28T14:17:24;12.40;99.90
15328;DHT22;7764;51.430;6.840;2023-12-28T14:19:52;12.40;99.90
15328;DHT22;7764;51.430;6.840;2023-12-28T14:22:20;12.40;99.90
15328;DHT22;7764;51.430;6.840;2023-12-28T14:24:48;12.40;99.90
15328;DHT22;7764;51.430;6.840;2023-12-28T14:27:15;12.40;99.90
15328;DHT22;7764;51.430;6.840;2023-12-28T14:29:43;12.30;99.90
15328;DHT22;7764;51.430;6.840;2023-12-28T14:32:11;12.30;99.90
15328;DHT22;7764;51.430;6.840;2023-12-28T14:34:39;12.30;99.90
15328;DHT22;7764;51.430;6.840;2023-12-28T14:37:07;12.30;99.90
15328;DHT22;7764;51.430;6.840;2023-12-28T14:39:34;12.30;99.90
15328;DHT22;7764;51.430;6.840;2023-12-28T14:42:01;12.30;99.90
15328;DHT22;7764;51.430;6.840;2023-12-28T14:44:29;12.30;99.90
15328;DHT22;7764;51.430;6.840;2023-12-28T14:46:56;12.20;99.90
15328;DHT22;7764;51.430;6.840;2023-12-28T14:49:23;12.20;99.90
15328;DHT22;7764;51.430;6.840;2023-12-28T14:51:50;12.20;99.90
15328;DHT22;7764;51.430;6.840;2023-12-28T14:54:18;12.20;99.90
15328;DHT22;7764;51.430;6.840;2023-12-28T14:56:45;12.20;99.90
15328;DHT22;7764;51.430;6.840;2023-12-28T14:59:12;12.20;99.90
15328;DHT22;7764;51.430;6.840;2023-12-28T15:01:39;12.20;99.90
15328;DHT22;7764;51.430;6.840;2023-12-28T15:04:06;12.10;99.90
15328;DHT22;7764;51.430;6.840;2023-12-28T15:06:34;12.10;99.90
15328;DHT22;7764;51.430;6.840;2023-12-28T15:09:01;12.10;99.90
15328;DHT22;7764;51.430;6.840;2023-12-28T15:11:30;12.10;99.90
15328;DHT22;7764;51.430;6.840;2023-12-28T15:13:58;12.10;99.90
15328;DHT22;7764;51.430;6.840;2023-12-28T15:16:25;12.10;99.90
15328;DHT22;7764;51.430;6.840;2023-12-28T15:18:52;12.10;99.90
15328;DHT22;7764;51.430;6.840;2023-12-28T15:21:20;12.00;99.90
15328;DHT22;7764;51.430;6.840;2023-12-28T15:23:47;11.90;99.90
15328;DHT22;7764;51.430;6.840;2023-12-28T15:26:15;11.90;99.90
15328;DHT22;7764;51.430;6.840;2023-12-28T15:28:46;11.90;99.90
15328;DHT22;7764;51.430;6.840;2023-12-28T15:31:14;11.90;99.90
15328;DHT22;7764;51.430;6.840;2023-12-28T15:33:41;11.90;99.90
15328;DHT22;7764;51.430;6.840;2023-12-28T15:36:09;11.80;99.90
15328;DHT22;7764;51.430;6.840;2023-12-28T15:38:36;11.80;99.90
15328;DHT22;7764;51.430;6.840;2023-12-28T15:41:03;11.90;99.90
15328;DHT22;7764;51.430;6.840;2023-12-28T15:43:30;11.90;99.90
15328;DHT22;7764;51.430;6.840;2023-12-28T15:45:58;11.90;99.90
15328;DHT22;7764;51.430;6.840;2023-12-28T15:48:25;11.80;99.90
15328;DHT22;7764;51.430;6.840;2023-12-28T15:50:52;11.80;99.90